createdAt,value
2022-12-12T00:00:43.213Z,100.00
2022-12-12T00:03:10.683Z,100.00
2022-12-12T00:05:37.991Z,100.00
2022-12-12T00:08:05.171Z,100.00
2022-12-12T00:10:32.390Z,100.00
2022-12-12T00:12:59.228Z,100.00
2022-12-12T00:15:27.423Z,100.00
2022-12-12T00:17:54.645Z,100.00
2022-12-12T00:20:21.473Z,100.00
2022-12-12T00:22:48.556Z,100.00
2022-12-12T00:25:15.670Z,100.00
2022-12-12T00:27:42.665Z,100.00
2022-12-12T00:30:09.965Z,100.00
2022-12-12T00:32:37.031Z,100.00
2022-12-12T00:35:04.240Z,100.00
2022-12-12T00:37:31.207Z,99.63
2022-12-12T00:39:58.209Z,98.17
2022-12-12T00:42:27.365Z,98.64
2022-12-12T00:44:54.496Z,97.53
2022-12-12T00:47:21.435Z,97.62
2022-12-12T00:49:48.400Z,97.47
2022-12-12T00:52:15.323Z,98.14
2022-12-12T00:54:42.173Z,98.63
2022-12-12T00:57:09.129Z,98.27
2022-12-12T00:59:36.082Z,97.91
2022-12-12T01:02:03.139Z,97.74
2022-12-12T01:04:30.149Z,97.29
2022-12-12T01:06:57.133Z,98.24
2022-12-12T01:09:23.968Z,98.77
2022-12-12T01:11:50.864Z,97.83
2022-12-12T01:14:17.798Z,96.23
2022-12-12T01:16:44.693Z,95.96
2022-12-12T01:19:11.616Z,95.22
2022-12-12T01:21:38.674Z,94.43
2022-12-12T01:24:05.928Z,94.01
2022-12-12T01:26:32.846Z,94.89
2022-12-12T01:28:59.683Z,94.33
2022-12-12T01:31:26.610Z,95.23
2022-12-12T01:33:53.534Z,98.61
2022-12-12T01:36:23.254Z,100.00
2022-12-12T01:38:52.436Z,100.00
2022-12-12T01:41:19.891Z,99.00
2022-12-12T01:43:47.387Z,98.63
2022-12-12T01:46:23.335Z,99.83
2022-12-12T01:48:59.027Z,98.99
2022-12-12T01:51:27.573Z,99.87
2022-12-12T01:54:04.827Z,99.47
2022-12-12T01:56:32.742Z,100.00
2022-12-12T01:59:00.769Z,99.92
2022-12-12T02:01:28.027Z,99.33
2022-12-12T02:03:55.570Z,99.15
2022-12-12T02:06:26.723Z,100.00
2022-12-12T02:08:56.921Z,98.92
2022-12-12T02:11:24.289Z,100.00
2022-12-12T02:13:51.972Z,99.71
2022-12-12T02:16:37.447Z,98.67
2022-12-12T02:19:38.206Z,97.01
2022-12-12T02:22:26.231Z,97.14
2022-12-12T02:25:08.182Z,97.57
2022-12-12T02:27:47.243Z,98.48
2022-12-12T02:30:22.603Z,99.26
2022-12-12T02:33:06.949Z,99.09
2022-12-12T02:35:58.281Z,99.73
2022-12-12T02:38:29.836Z,98.78
2022-12-12T02:41:14.107Z,99.00
2022-12-12T02:44:08.848Z,97.34
2022-12-12T02:46:48.644Z,96.89
2022-12-12T02:49:15.526Z,97.05
2022-12-12T02:51:44.507Z,96.90
2022-12-12T02:54:17.398Z,96.12
2022-12-12T02:56:50.056Z,94.59
2022-12-12T02:59:25.644Z,93.29
2022-12-12T03:02:07.539Z,92.28
2022-12-12T03:05:16.095Z,90.97
2022-12-12T03:08:00.205Z,89.96
2022-12-12T03:10:42.287Z,90.61
2022-12-12T03:13:32.408Z,90.42
2022-12-12T03:16:25.648Z,91.43
2022-12-12T03:18:58.384Z,91.23
2022-12-12T03:21:46.487Z,92.95
2022-12-12T03:24:44.896Z,92.66
2022-12-12T03:27:35.800Z,93.64
2022-12-12T03:30:05.566Z,94.29
2022-12-12T03:32:42.610Z,94.38
2022-12-12T03:35:19.560Z,94.76
2022-12-12T03:37:54.847Z,94.66
2022-12-12T03:40:39.606Z,94.32
2022-12-12T03:43:20.076Z,94.03
2022-12-12T03:45:53.030Z,94.31
2022-12-12T03:48:30.876Z,94.73
2022-12-12T03:51:20.146Z,93.29
2022-12-12T03:53:52.164Z,94.19
2022-12-12T03:56:27.214Z,93.05
2022-12-12T03:59:11.659Z,93.42
2022-12-12T04:01:46.871Z,92.84
2022-12-12T04:04:31.931Z,92.86
2022-12-12T04:07:07.108Z,91.61
2022-12-12T04:09:53.070Z,92.86
2022-12-12T04:12:44.382Z,92.39
2022-12-12T04:15:23.437Z,92.06
2022-12-12T04:18:27.810Z,93.25
2022-12-12T04:21:22.210Z,92.30
2022-12-12T04:23:56.495Z,92.39
2022-12-12T04:26:44.181Z,91.79
2022-12-12T04:29:36.492Z,91.93
2022-12-12T04:32:19.124Z,91.19
2022-12-12T04:34:50.483Z,89.77
2022-12-12T04:37:22.875Z,89.30
2022-12-12T04:39:53.985Z,90.22
2022-12-12T04:42:24.374Z,90.64
2022-12-12T04:44:55.237Z,91.18
2022-12-12T04:47:24.021Z,91.57
2022-12-12T04:49:53.834Z,91.45
2022-12-12T04:52:22.587Z,91.37
2022-12-12T04:55:03.991Z,91.81
2022-12-12T04:57:40.002Z,91.77
2022-12-12T05:00:13.311Z,91.73
2022-12-12T05:02:50.664Z,91.00
2022-12-12T05:05:23.426Z,91.21
2022-12-12T05:07:58.227Z,89.76
2022-12-12T05:10:25.388Z,86.26
2022-12-12T05:12:58.260Z,85.07
2022-12-12T05:15:25.902Z,84.75
2022-12-12T05:18:00.764Z,87.59
2022-12-12T05:20:27.652Z,88.78
2022-12-12T05:22:54.484Z,88.52
2022-12-12T05:25:21.397Z,88.90
2022-12-12T05:27:48.323Z,90.06
2022-12-12T05:30:15.365Z,91.07
2022-12-12T05:32:42.258Z,90.67
2022-12-12T05:35:10.183Z,89.50
2022-12-12T05:37:37.323Z,90.08
2022-12-12T05:40:05.994Z,91.19
2022-12-12T05:42:32.946Z,92.02
2022-12-12T05:44:59.887Z,92.52
2022-12-12T05:47:27.156Z,91.38
2022-12-12T05:49:54.343Z,91.11
2022-12-12T05:52:21.222Z,90.25
2022-12-12T05:54:48.183Z,88.50
2022-12-12T05:57:15.119Z,87.40
2022-12-12T05:59:41.964Z,83.44
2022-12-12T06:02:08.917Z,84.18
2022-12-12T06:04:35.815Z,86.59
2022-12-12T06:07:02.791Z,87.01
2022-12-12T06:09:29.640Z,87.12
2022-12-12T06:11:56.577Z,86.57
2022-12-12T06:14:23.619Z,87.50
2022-12-12T06:16:50.448Z,87.29
2022-12-12T06:19:18.929Z,88.62
2022-12-12T06:21:45.826Z,89.00
2022-12-12T06:24:13.475Z,86.85
2022-12-12T06:26:40.405Z,87.51
2022-12-12T06:29:07.282Z,83.74
2022-12-12T06:31:34.211Z,79.85
2022-12-12T06:34:01.118Z,76.34
2022-12-12T06:36:28.286Z,72.37
2022-12-12T06:38:58.166Z,73.52
2022-12-12T06:41:27.197Z,77.02
2022-12-12T06:43:54.626Z,78.16
2022-12-12T06:46:24.214Z,77.46
2022-12-12T06:48:51.575Z,77.03
2022-12-12T06:51:26.102Z,74.04
2022-12-12T06:53:53.233Z,73.43
2022-12-12T06:56:23.167Z,73.05
2022-12-12T06:58:51.402Z,74.80
2022-12-12T07:01:20.435Z,74.15
2022-12-12T07:03:49.559Z,76.63
2022-12-12T07:06:18.778Z,78.84
2022-12-12T07:08:46.274Z,77.12
2022-12-12T07:11:24.414Z,76.31
2022-12-12T07:13:52.270Z,76.09
2022-12-12T07:16:19.503Z,69.85
2022-12-12T07:18:47.445Z,67.73
2022-12-12T07:21:17.560Z,70.58
2022-12-12T07:23:44.636Z,72.88
2022-12-12T07:26:17.517Z,71.57
2022-12-12T07:28:44.693Z,71.97
2022-12-12T07:31:14.177Z,70.44
2022-12-12T07:33:44.494Z,72.13
2022-12-12T07:36:16.151Z,73.04
2022-12-12T07:38:43.871Z,74.08
2022-12-12T07:41:13.708Z,70.29
2022-12-12T07:43:44.312Z,71.74
2022-12-12T07:46:14.674Z,73.88
2022-12-12T07:48:41.741Z,68.06
2022-12-12T07:51:08.616Z,61.68
2022-12-12T07:53:35.490Z,58.71
2022-12-12T07:56:06.565Z,56.19
2022-12-12T07:58:34.332Z,51.73
2022-12-12T08:01:01.246Z,46.78
2022-12-12T08:03:28.154Z,49.34
2022-12-12T08:05:55.167Z,50.74
2022-12-12T08:08:22.084Z,53.78
2022-12-12T08:10:49.037Z,55.74
2022-12-12T08:13:15.885Z,58.73
2022-12-12T08:15:43.352Z,61.34
2022-12-12T08:18:10.313Z,58.99
2022-12-12T08:20:40.260Z,61.81
2022-12-12T08:23:08.025Z,61.95
2022-12-12T08:25:36.189Z,62.93
2022-12-12T08:28:03.328Z,63.37
2022-12-12T08:30:30.238Z,60.46
2022-12-12T08:32:57.158Z,65.01
2022-12-12T08:35:24.107Z,60.52
2022-12-12T08:37:50.924Z,63.46
2022-12-12T08:40:17.861Z,62.76
2022-12-12T08:42:44.837Z,62.23
2022-12-12T08:45:12.175Z,62.03
2022-12-12T08:47:39.222Z,63.71
2022-12-12T08:50:06.876Z,66.12
2022-12-12T08:52:33.743Z,64.62
2022-12-12T08:55:01.147Z,66.84
2022-12-12T08:57:28.115Z,63.62
2022-12-12T08:59:55.013Z,64.67
2022-12-12T09:02:22.126Z,64.74
2022-12-12T09:04:49.055Z,64.52
2022-12-12T09:07:15.909Z,64.59
2022-12-12T09:09:42.746Z,64.10
2022-12-12T09:12:09.593Z,64.79
2022-12-12T09:14:36.778Z,64.55
2022-12-12T09:17:03.694Z,66.20
2022-12-12T09:19:30.589Z,71.12
2022-12-12T09:21:57.426Z,76.79
2022-12-12T09:24:25.608Z,78.24
2022-12-12T09:26:52.508Z,78.83
2022-12-12T09:29:19.474Z,79.25
2022-12-12T09:31:46.551Z,79.34
2022-12-12T09:34:13.865Z,77.59
2022-12-12T09:36:40.868Z,78.08
2022-12-12T09:39:07.766Z,74.34
2022-12-12T09:41:34.664Z,69.16
2022-12-12T09:44:09.897Z,68.00
2022-12-12T09:46:42.675Z,66.43
2022-12-12T09:49:49.133Z,68.20
2022-12-12T09:52:33.381Z,66.01
2022-12-12T09:55:02.891Z,64.74
2022-12-12T09:58:16.023Z,62.66
2022-12-12T10:00:48.669Z,63.51
2022-12-12T10:03:33.251Z,61.55
2022-12-12T10:09:27.567Z,61.65
2022-12-12T10:11:56.037Z,62.33
2022-12-12T10:14:43.447Z,62.64
2022-12-12T10:17:20.703Z,62.98
2022-12-12T10:19:51.120Z,62.40
2022-12-12T10:22:34.488Z,59.33
2022-12-12T10:25:04.387Z,60.63
2022-12-12T10:27:31.379Z,61.18
2022-12-12T10:30:04.858Z,59.24
2022-12-12T10:32:40.160Z,55.23
2022-12-12T10:35:18.896Z,51.43
2022-12-12T10:38:24.379Z,52.15
2022-12-12T10:41:06.371Z,51.52
2022-12-12T10:43:48.236Z,51.84
2022-12-12T10:46:18.953Z,52.32
2022-12-12T10:48:48.771Z,51.93
2022-12-12T10:51:19.758Z,54.88
2022-12-12T10:53:47.367Z,53.17
2022-12-12T10:56:26.888Z,54.02
2022-12-12T10:58:59.806Z,53.05
2022-12-12T11:02:08.452Z,53.34
2022-12-12T11:04:23.893Z,54.29
2022-12-12T11:06:52.896Z,54.95
2022-12-12T11:09:25.836Z,51.34
2022-12-12T11:12:10.859Z,53.52
2022-12-12T11:14:45.023Z,51.06
2022-12-12T11:17:32.513Z,51.65
2022-12-12T11:20:01.631Z,56.23
2022-12-12T11:22:32.385Z,59.17
2022-12-12T11:25:00.542Z,58.21
2022-12-12T11:27:41.575Z,56.93
2022-12-12T11:30:41.978Z,55.67
2022-12-12T11:33:19.867Z,57.94
2022-12-12T11:35:53.990Z,60.14
2022-12-12T11:38:26.754Z,60.24
2022-12-12T11:41:03.211Z,58.35
2022-12-12T11:43:32.229Z,61.06
2022-12-12T11:46:04.459Z,61.13
2022-12-12T11:48:35.263Z,58.00
2022-12-12T11:51:02.987Z,58.65
2022-12-12T11:53:30.235Z,57.95
2022-12-12T11:55:57.087Z,57.98
2022-12-12T11:58:37.082Z,56.61
2022-12-12T12:01:12.732Z,58.04
2022-12-12T12:03:52.302Z,54.78
2022-12-12T12:06:49.961Z,54.15
2022-12-12T12:09:45.485Z,56.82
2022-12-12T12:12:28.526Z,57.36
2022-12-12T12:15:07.326Z,56.43
2022-12-12T12:17:46.474Z,59.45
2022-12-12T12:20:44.398Z,60.58
2022-12-12T12:23:35.119Z,57.72
2022-12-12T12:26:31.389Z,56.98
2022-12-12T12:29:16.978Z,54.79
2022-12-12T12:31:59.010Z,55.87
2022-12-12T12:34:57.809Z,57.20
2022-12-12T12:37:40.073Z,57.62
2022-12-12T12:40:57.581Z,60.49
2022-12-12T12:44:01.409Z,60.82
2022-12-12T12:46:38.510Z,60.60
2022-12-12T12:49:30.705Z,58.26
2022-12-12T12:52:09.478Z,59.56
2022-12-12T12:54:45.763Z,57.87
2022-12-12T12:57:22.061Z,58.78
2022-12-12T12:59:53.614Z,59.76
2022-12-12T13:02:30.560Z,59.57
2022-12-12T13:05:08.312Z,60.52
2022-12-12T13:07:47.317Z,58.52
2022-12-12T13:10:23.630Z,59.19
2022-12-12T13:12:55.044Z,57.27
2022-12-12T13:15:28.408Z,57.83
2022-12-12T13:18:10.681Z,55.10
2022-12-12T13:20:45.869Z,54.25
2022-12-12T13:23:17.857Z,54.88
2022-12-12T13:26:12.503Z,56.89
2022-12-12T13:28:51.703Z,60.34
2022-12-12T13:31:34.193Z,59.10
2022-12-12T13:34:09.085Z,57.68
2022-12-12T13:36:40.453Z,59.33
2022-12-12T13:39:22.339Z,58.83
2022-12-12T13:42:02.202Z,59.12
2022-12-12T13:44:33.100Z,57.14
2022-12-12T13:47:00.067Z,53.69
2022-12-12T13:49:32.461Z,50.59
2022-12-12T13:52:30.908Z,50.36
2022-12-12T13:55:20.365Z,49.60
2022-12-12T13:57:57.186Z,49.24
2022-12-12T14:00:25.545Z,50.61
2022-12-12T14:03:01.923Z,52.17
2022-12-12T14:05:33.401Z,52.19
2022-12-12T14:08:22.681Z,53.64
2022-12-12T14:10:49.616Z,56.13
2022-12-12T14:13:22.316Z,57.60
2022-12-12T14:15:58.426Z,59.53
2022-12-12T14:18:41.624Z,59.79
2022-12-12T14:21:14.429Z,58.31
2022-12-12T14:23:45.541Z,59.18
2022-12-12T14:26:27.442Z,60.47
2022-12-12T14:29:18.948Z,61.03
2022-12-12T14:32:13.879Z,60.41
2022-12-12T14:35:04.660Z,60.64
2022-12-12T14:37:54.879Z,61.85
2022-12-12T14:40:25.550Z,63.66
2022-12-12T14:43:23.263Z,65.12
2022-12-12T14:45:50.233Z,65.21
2022-12-12T14:48:20.240Z,64.36
2022-12-12T14:50:52.806Z,64.27
2022-12-12T14:53:25.816Z,64.95
2022-12-12T14:55:57.430Z,66.08
2022-12-12T14:58:28.147Z,65.15
2022-12-12T15:00:58.942Z,66.90
2022-12-12T15:03:47.426Z,69.67
2022-12-12T15:06:40.511Z,68.97
2022-12-12T15:09:15.391Z,69.69
2022-12-12T15:11:43.046Z,70.07
2022-12-12T15:14:25.845Z,71.85
2022-12-12T15:17:00.465Z,69.93
2022-12-12T15:19:34.484Z,69.40
2022-12-12T15:22:01.861Z,70.74
2022-12-12T15:24:37.483Z,69.96
2022-12-12T15:27:05.978Z,69.73
2022-12-12T15:29:35.434Z,69.36
2022-12-12T15:32:16.068Z,70.29
2022-12-12T15:34:47.358Z,71.53
2022-12-12T15:37:24.758Z,71.18
2022-12-12T15:40:12.888Z,72.40
2022-12-12T15:42:50.399Z,71.84
2022-12-12T15:45:25.911Z,70.99
2022-12-12T15:47:55.377Z,70.29
2022-12-12T15:50:27.369Z,70.05
2022-12-12T15:53:00.597Z,71.58
2022-12-12T15:55:28.025Z,73.40
2022-12-12T15:57:55.009Z,74.01
2022-12-12T16:00:42.243Z,71.61
2022-12-12T16:03:09.148Z,71.66
2022-12-12T16:05:38.320Z,72.78
2022-12-12T16:08:31.485Z,73.21
2022-12-12T16:11:02.814Z,72.81
2022-12-12T16:13:44.457Z,72.13
2022-12-12T16:16:42.758Z,72.78
2022-12-12T16:19:28.403Z,73.55
2022-12-12T16:21:55.681Z,75.29
2022-12-12T16:24:25.568Z,73.44
2022-12-12T16:26:57.465Z,74.06
2022-12-12T16:29:24.455Z,74.27
2022-12-12T16:31:51.626Z,73.66
2022-12-12T16:34:18.989Z,74.82
2022-12-12T16:36:46.625Z,75.72
2022-12-12T16:39:13.981Z,78.92
2022-12-12T16:41:41.194Z,80.25
2022-12-12T16:44:08.159Z,82.04
2022-12-12T16:46:35.020Z,80.47
2022-12-12T16:49:04.843Z,79.28
2022-12-12T16:51:34.512Z,79.59
2022-12-12T16:54:01.915Z,79.81
2022-12-12T16:56:28.868Z,79.38
2022-12-12T16:58:56.329Z,80.47
2022-12-12T17:01:23.666Z,80.59
2022-12-12T17:03:50.967Z,80.97
2022-12-12T17:06:17.917Z,81.41
2022-12-12T17:08:44.827Z,81.48
2022-12-12T17:11:12.623Z,79.93
2022-12-12T17:13:46.359Z,81.05
2022-12-12T17:16:13.913Z,83.10
2022-12-12T17:18:40.828Z,82.77
2022-12-12T17:21:07.686Z,81.38
2022-12-12T17:23:34.833Z,80.22
2022-12-12T17:26:04.801Z,80.45
2022-12-12T17:28:34.329Z,82.14
2022-12-12T17:31:02.065Z,81.69
2022-12-12T17:33:29.274Z,81.48
2022-12-12T17:36:04.558Z,81.23
2022-12-12T17:38:31.917Z,83.06
2022-12-12T17:41:03.696Z,81.84
2022-12-12T17:43:30.633Z,80.07
2022-12-12T17:46:02.930Z,80.67
2022-12-12T17:48:32.864Z,80.30
2022-12-12T17:51:02.032Z,79.87
2022-12-12T17:53:36.635Z,79.60
2022-12-12T17:56:07.724Z,78.88
2022-12-12T17:58:37.844Z,79.04
2022-12-12T18:01:17.687Z,77.40
2022-12-12T18:03:44.802Z,78.60
2022-12-12T18:06:14.385Z,78.50
2022-12-12T18:08:41.771Z,80.10
2022-12-12T18:11:10.892Z,80.52
2022-12-12T18:13:41.593Z,80.28
2022-12-12T18:16:11.147Z,78.50
2022-12-12T18:18:38.387Z,79.36
2022-12-12T18:21:12.707Z,80.00
2022-12-12T18:23:40.023Z,78.75
2022-12-12T18:26:09.946Z,77.58
2022-12-12T18:28:37.410Z,79.70
2022-12-12T18:31:05.221Z,77.39
2022-12-12T18:33:32.619Z,77.85
2022-12-12T18:36:07.757Z,78.11
2022-12-12T18:38:36.273Z,77.04
2022-12-12T18:41:04.110Z,75.74
2022-12-12T18:43:32.168Z,75.55
2022-12-12T18:46:05.206Z,75.10
2022-12-12T18:48:33.426Z,76.29
2022-12-12T18:51:11.199Z,75.89
2022-12-12T18:53:39.084Z,76.17
2022-12-12T18:56:20.018Z,74.73
2022-12-12T18:58:47.113Z,76.80
2022-12-12T19:01:21.708Z,77.76
2022-12-12T19:03:51.082Z,77.06
2022-12-12T19:06:23.430Z,74.33
2022-12-12T19:08:50.929Z,74.21
2022-12-12T19:11:17.903Z,75.40
2022-12-12T19:13:46.492Z,79.00
2022-12-12T19:16:16.371Z,83.26
2022-12-12T19:18:44.041Z,83.98
2022-12-12T19:21:20.440Z,83.38
2022-12-12T19:23:47.903Z,82.08
2022-12-12T19:26:18.426Z,82.89
2022-12-12T19:28:47.273Z,81.64
2022-12-12T19:31:16.651Z,82.02
2022-12-12T19:33:44.897Z,83.00
2022-12-12T19:36:15.133Z,84.67
2022-12-12T19:38:42.746Z,85.64
2022-12-12T19:41:11.303Z,88.58
2022-12-12T19:43:38.395Z,88.15
2022-12-12T19:46:07.585Z,86.22
2022-12-12T19:48:36.414Z,85.62
2022-12-12T19:51:07.261Z,87.13
2022-12-12T19:53:37.788Z,85.54
2022-12-12T19:56:05.184Z,85.20
2022-12-12T19:58:35.202Z,85.04
2022-12-12T20:01:07.359Z,85.68
2022-12-12T20:03:34.482Z,83.69
2022-12-12T20:06:07.862Z,83.26
2022-12-12T20:08:36.711Z,83.57
2022-12-12T20:11:12.302Z,82.86
2022-12-12T20:13:39.349Z,81.04
2022-12-12T20:16:17.420Z,81.43
2022-12-12T20:18:44.713Z,84.33
2022-12-12T20:21:24.626Z,87.69
2022-12-12T20:23:58.614Z,90.78
2022-12-12T20:26:28.964Z,91.93
2022-12-12T20:28:59.560Z,93.06
2022-12-12T20:31:33.485Z,96.33
2022-12-12T20:34:00.814Z,97.15
2022-12-12T20:36:31.770Z,95.13
2022-12-12T20:39:00.855Z,90.71
2022-12-12T20:41:31.283Z,78.23
2022-12-12T20:43:59.506Z,77.31
2022-12-12T20:46:32.260Z,80.10
2022-12-12T20:49:01.899Z,78.89
2022-12-12T20:54:21.662Z,78.83
2022-12-12T20:56:49.507Z,77.24
2022-12-12T20:59:16.481Z,80.86
2022-12-12T21:01:43.805Z,81.76
2022-12-12T21:04:10.773Z,84.33
2022-12-12T21:06:41.542Z,85.18
2022-12-12T21:09:10.452Z,85.46
2022-12-12T21:11:38.912Z,84.33
2022-12-12T21:14:09.598Z,84.43
2022-12-12T21:16:39.070Z,83.52
2022-12-12T21:19:12.172Z,85.78
2022-12-12T21:21:40.879Z,84.43
2022-12-12T21:24:08.128Z,85.18
2022-12-12T21:26:35.323Z,87.77
2022-12-12T21:29:03.072Z,88.91
2022-12-12T21:31:32.950Z,91.11
2022-12-12T21:34:00.652Z,91.59
2022-12-12T21:36:28.911Z,91.78
2022-12-12T21:38:57.585Z,94.13
2022-12-12T21:41:25.399Z,92.77
2022-12-12T21:43:52.786Z,93.66
2022-12-12T21:46:22.632Z,93.08
2022-12-12T21:49:28.747Z,95.61
2022-12-12T21:51:58.406Z,97.36
2022-12-12T21:54:25.780Z,99.22
2022-12-12T21:56:53.210Z,99.19
2022-12-12T21:59:20.166Z,100.00
2022-12-12T22:01:47.119Z,100.00
2022-12-12T22:04:14.680Z,100.00
2022-12-12T22:06:45.173Z,100.00
2022-12-12T22:09:12.747Z,100.00
2022-12-12T22:11:49.371Z,100.00
2022-12-12T22:14:21.769Z,100.00
2022-12-12T22:16:49.092Z,100.00
2022-12-12T22:19:16.639Z,100.00
2022-12-12T22:21:46.474Z,100.00
2022-12-12T22:24:13.749Z,100.00
2022-12-12T22:26:44.028Z,100.00
2022-12-12T22:29:13.998Z,100.00
2022-12-12T22:31:42.137Z,100.00
2022-12-12T22:34:15.890Z,100.00
2022-12-12T22:36:44.121Z,100.00
2022-12-12T22:39:20.375Z,100.00
2022-12-12T22:41:47.632Z,100.00
2022-12-12T22:44:17.138Z,100.00
2022-12-12T22:46:48.858Z,100.00
2022-12-12T22:49:19.413Z,100.00
2022-12-12T22:51:47.346Z,100.00
2022-12-12T22:54:14.897Z,100.00
2022-12-12T22:56:42.478Z,100.00
2022-12-12T22:59:12.017Z,99.09
2022-12-12T23:01:40.038Z,99.89
2022-12-12T23:04:07.484Z,99.50
2022-12-12T23:06:36.191Z,100.00
2022-12-12T23:09:14.395Z,100.00
2022-12-12T23:11:41.760Z,100.00
2022-12-12T23:14:14.361Z,99.28
2022-12-12T23:16:41.884Z,100.00
2022-12-12T23:19:10.174Z,100.00
2022-12-12T23:21:37.858Z,99.99
2022-12-12T23:24:06.203Z,100.00
2022-12-12T23:26:35.736Z,100.00
2022-12-12T23:29:04.314Z,96.92
2022-12-12T23:31:33.860Z,98.63
2022-12-12T23:34:03.302Z,100.00
2022-12-12T23:36:31.158Z,100.00
2022-12-12T23:39:00.884Z,100.00
2022-12-12T23:41:28.354Z,100.00
2022-12-12T23:43:56.125Z,100.00
2022-12-12T23:46:32.261Z,99.33
2022-12-12T23:49:08.566Z,100.00
2022-12-12T23:51:38.680Z,100.00
2022-12-12T23:54:10.962Z,100.00
2022-12-12T23:56:38.590Z,100.00
2022-12-12T23:59:06.362Z,97.95
